sensor_id;sensor_type;location;lat;lon;timestamp;temperature;humidity
45104;DHT22;30865;51.288;4.572;2023-06-22T00:00:49;22.30;99.90
45104;DHT22;30865;51.288;4.572;2023-06-22T00:03:15;22.20;99.90
45104;DHT22;30865;51.288;4.572;2023-06-22T00:05:41;22.20;99.90
45104;DHT22;30865;51.288;4.572;2023-06-22T00:08:06;22.10;99.90
45104;DHT22;30865;51.288;4.572;2023-06-22T00:10:32;22.10;99.90
45104;DHT22;30865;51.288;4.572;2023-06-22T00:12:58;22.10;99.90
45104;DHT22;30865;51.288;4.572;2023-06-22T00:15:24;22.00;99.90
45104;DHT22;30865;51.288;4.572;2023-06-22T00:17:50;22.00;99.90
45104;DHT22;30865;51.288;4.572;2023-06-22T00:20:16;21.80;99.90
45104;DHT22;30865;51.288;4.572;2023-06-22T00:22:43;21.80;99.90
45104;DHT22;30865;51.288;4.572;2023-06-22T00:25:09;21.80;99.90
45104;DHT22;30865;51.288;4.572;2023-06-22T00:27:36;21.80;99.90
45104;DHT22;30865;51.288;4.572;2023-06-22T00:30:02;21.70;99.90
45104;DHT22;30865;51.288;4.572;2023-06-22T00:32:28;21.60;99.90
45104;DHT22;30865;51.288;4.572;2023-06-22T00:34:53;21.70;99.90
45104;DHT22;30865;51.288;4.572;2023-06-22T00:37:19;21.60;99.90
45104;DHT22;30865;51.288;4.572;2023-06-22T00:39:44;21.60;99.90
45104;DHT22;30865;51.288;4.572;2023-06-22T00:42:10;21.60;99.90
45104;DHT22;30865;51.288;4.572;2023-06-22T00:44:36;21.50;99.90
45104;DHT22;30865;51.288;4.572;2023-06-22T00:47:02;21.50;99.90
45104;DHT22;30865;51.288;4.572;2023-06-22T00:49:28;21.50;99.90
45104;DHT22;30865;51.288;4.572;2023-06-22T00:51:54;21.60;99.90
45104;DHT22;30865;51.288;4.572;2023-06-22T00:54:20;21.50;99.90
45104;DHT22;30865;51.288;4.572;2023-06-22T00:56:53;21.60;99.90
45104;DHT22;30865;51.288;4.572;2023-06-22T00:59:21;21.60;99.90
45104;DHT22;30865;51.288;4.572;2023-06-22T01:01:47;21.60;99.90
45104;DHT22;30865;51.288;4.572;2023-06-22T01:04:13;21.60;99.90
45104;DHT22;30865;51.288;4.572;2023-06-22T01:06:43;21.60;99.90
45104;DHT22;30865;51.288;4.572;2023-06-22T01:09:23;21.50;99.90
45104;DHT22;30865;51.288;4.572;2023-06-22T01:12:01;21.50;99.90
45104;DHT22;30865;51.288;4.572;2023-06-22T01:14:46;21.50;99.90
45104;DHT22;30865;51.288;4.572;2023-06-22T01:17:14;21.40;99.90
45104;DHT22;30865;51.288;4.572;2023-06-22T01:19:46;21.50;99.90
45104;DHT22;30865;51.288;4.572;2023-06-22T01:22:15;21.40;99.90
45104;DHT22;30865;51.288;4.572;2023-06-22T01:27:27;21.20;99.90
45104;DHT22;30865;51.288;4.572;2023-06-22T01:29:56;21.30;99.90
45104;DHT22;30865;51.288;4.572;2023-06-22T01:32:30;21.30;99.90
45104;DHT22;30865;51.288;4.572;2023-06-22T01:34:58;21.40;99.90
45104;DHT22;30865;51.288;4.572;2023-06-22T01:37:25;21.30;99.90
45104;DHT22;30865;51.288;4.572;2023-06-22T01:39:51;21.30;99.90
45104;DHT22;30865;51.288;4.572;2023-06-22T01:42:17;21.30;99.90
45104;DHT22;30865;51.288;4.572;2023-06-22T01:44:43;21.30;99.90
45104;DHT22;30865;51.288;4.572;2023-06-22T01:47:09;21.30;99.90
45104;DHT22;30865;51.288;4.572;2023-06-22T01:49:35;21.30;99.90
45104;DHT22;30865;51.288;4.572;2023-06-22T01:52:00;21.20;99.90
45104;DHT22;30865;51.288;4.572;2023-06-22T01:54:26;21.20;99.90
45104;DHT22;30865;51.288;4.572;2023-06-22T01:56:51;21.20;99.90
45104;DHT22;30865;51.288;4.572;2023-06-22T01:59:37;21.20;99.90
45104;DHT22;30865;51.288;4.572;2023-06-22T02:02:08;21.20;99.90
45104;DHT22;30865;51.288;4.572;2023-06-22T02:04:42;21.20;99.90
45104;DHT22;30865;51.288;4.572;2023-06-22T02:07:13;21.20;99.90
45104;DHT22;30865;51.288;4.572;2023-06-22T02:09:43;21.20;99.90
45104;DHT22;30865;51.288;4.572;2023-06-22T02:12:10;21.20;99.90
45104;DHT22;30865;51.288;4.572;2023-06-22T02:14:36;21.20;99.90
45104;DHT22;30865;51.288;4.572;2023-06-22T02:17:03;21.20;99.90
45104;DHT22;30865;51.288;4.572;2023-06-22T02:19:35;21.20;99.90
45104;DHT22;30865;51.288;4.572;2023-06-22T02:22:01;21.20;99.90
45104;DHT22;30865;51.288;4.572;2023-06-22T02:24:27;21.20;99.90
45104;DHT22;30865;51.288;4.572;2023-06-22T02:26:52;21.10;99.90
45104;DHT22;30865;51.288;4.572;2023-06-22T02:29:18;21.10;99.90
45104;DHT22;30865;51.288;4.572;2023-06-22T02:31:43;21.10;99.90
45104;DHT22;30865;51.288;4.572;2023-06-22T02:34:09;21.10;99.90
45104;DHT22;30865;51.288;4.572;2023-06-22T02:36:34;21.10;99.90
45104;DHT22;30865;51.288;4.572;2023-06-22T02:39:00;21.00;99.90
45104;DHT22;30865;51.288;4.572;2023-06-22T02:41:27;20.90;99.90
45104;DHT22;30865;51.288;4.572;2023-06-22T02:43:52;20.90;99.90
45104;DHT22;30865;51.288;4.572;2023-06-22T02:46:18;20.80;99.90
45104;DHT22;30865;51.288;4.572;2023-06-22T02:48:44;20.90;99.90
45104;DHT22;30865;51.288;4.572;2023-06-22T02:51:09;20.90;99.90
45104;DHT22;30865;51.288;4.572;2023-06-22T02:53:35;20.80;99.90
45104;DHT22;30865;51.288;4.572;2023-06-22T02:56:03;20.70;99.90
45104;DHT22;30865;51.288;4.572;2023-06-22T02:58:32;20.60;99.90
45104;DHT22;30865;51.288;4.572;2023-06-22T03:01:06;20.60;99.90
45104;DHT22;30865;51.288;4.572;2023-06-22T03:03:32;20.70;99.90
45104;DHT22;30865;51.288;4.572;2023-06-22T03:05:57;20.60;99.90
45104;DHT22;30865;51.288;4.572;2023-06-22T03:08:23;20.50;99.90
45104;DHT22;30865;51.288;4.572;2023-06-22T03:10:48;20.50;99.90
45104;DHT22;30865;51.288;4.572;2023-06-22T03:13:14;20.40;99.90
45104;DHT22;30865;51.288;4.572;2023-06-22T03:15:39;20.30;99.90
45104;DHT22;30865;51.288;4.572;2023-06-22T03:18:05;20.40;99.90
45104;DHT22;30865;51.288;4.572;2023-06-22T03:20:30;20.30;99.90
45104;DHT22;30865;51.288;4.572;2023-06-22T03:22:59;20.30;99.90
45104;DHT22;30865;51.288;4.572;2023-06-22T03:25:24;20.30;99.90
45104;DHT22;30865;51.288;4.572;2023-06-22T03:27:50;20.40;99.90
45104;DHT22;30865;51.288;4.572;2023-06-22T03:30:15;20.30;99.90
45104;DHT22;30865;51.288;4.572;2023-06-22T03:32:40;20.30;99.90
45104;DHT22;30865;51.288;4.572;2023-06-22T03:35:08;20.40;99.90
45104;DHT22;30865;51.288;4.572;2023-06-22T03:37:33;20.40;99.90
45104;DHT22;30865;51.288;4.572;2023-06-22T03:39:59;20.40;99.90
45104;DHT22;30865;51.288;4.572;2023-06-22T03:42:26;20.40;99.90
45104;DHT22;30865;51.288;4.572;2023-06-22T03:44:51;20.40;99.90
45104;DHT22;30865;51.288;4.572;2023-06-22T03:47:17;20.50;99.90
45104;DHT22;30865;51.288;4.572;2023-06-22T03:49:43;20.50;99.90
45104;DHT22;30865;51.288;4.572;2023-06-22T03:52:08;20.40;99.90
45104;DHT22;30865;51.288;4.572;2023-06-22T03:54:36;20.40;99.90
45104;DHT22;30865;51.288;4.572;2023-06-22T03:57:01;20.40;99.90
45104;DHT22;30865;51.288;4.572;2023-06-22T03:59:27;20.40;99.90
45104;DHT22;30865;51.288;4.572;2023-06-22T04:01:52;20.50;99.90
45104;DHT22;30865;51.288;4.572;2023-06-22T04:04:18;20.50;99.90
45104;DHT22;30865;51.288;4.572;2023-06-22T04:06:44;20.60;99.90
45104;DHT22;30865;51.288;4.572;2023-06-22T04:09:09;20.60;99.90
45104;DHT22;30865;51.288;4.572;2023-06-22T04:11:35;20.60;99.90
45104;DHT22;30865;51.288;4.572;2023-06-22T04:14:00;20.60;99.90
45104;DHT22;30865;51.288;4.572;2023-06-22T04:16:26;20.60;99.90
45104;DHT22;30865;51.288;4.572;2023-06-22T04:18:52;20.60;99.90
45104;DHT22;30865;51.288;4.572;2023-06-22T04:21:18;20.70;99.90
45104;DHT22;30865;51.288;4.572;2023-06-22T04:23:45;20.80;99.90
45104;DHT22;30865;51.288;4.572;2023-06-22T04:26:14;20.60;99.90
45104;DHT22;30865;51.288;4.572;2023-06-22T04:28:40;20.70;99.90
45104;DHT22;30865;51.288;4.572;2023-06-22T04:31:05;20.70;99.90
45104;DHT22;30865;51.288;4.572;2023-06-22T04:33:31;20.80;99.90
45104;DHT22;30865;51.288;4.572;2023-06-22T04:35:57;20.90;99.90
45104;DHT22;30865;51.288;4.572;2023-06-22T04:38:24;21.00;99.90
45104;DHT22;30865;51.288;4.572;2023-06-22T04:40:50;21.00;99.90
45104;DHT22;30865;51.288;4.572;2023-06-22T04:43:16;21.00;99.90
45104;DHT22;30865;51.288;4.572;2023-06-22T04:45:42;21.10;99.90
45104;DHT22;30865;51.288;4.572;2023-06-22T04:48:07;21.30;99.90
45104;DHT22;30865;51.288;4.572;2023-06-22T04:50:36;21.30;99.90
45104;DHT22;30865;51.288;4.572;2023-06-22T04:53:02;21.20;99.90
45104;DHT22;30865;51.288;4.572;2023-06-22T04:55:31;21.30;99.90
45104;DHT22;30865;51.288;4.572;2023-06-22T04:57:57;21.30;99.90
45104;DHT22;30865;51.288;4.572;2023-06-22T05:00:30;21.30;99.90
45104;DHT22;30865;51.288;4.572;2023-06-22T05:02:55;21.30;99.90
45104;DHT22;30865;51.288;4.572;2023-06-22T05:05:23;21.40;99.90
45104;DHT22;30865;51.288;4.572;2023-06-22T05:07:50;21.40;99.90
45104;DHT22;30865;51.288;4.572;2023-06-22T05:10:19;21.50;99.90
45104;DHT22;30865;51.288;4.572;2023-06-22T05:12:45;21.70;99.90
45104;DHT22;30865;51.288;4.572;2023-06-22T05:15:11;21.90;99.90
45104;DHT22;30865;51.288;4.572;2023-06-22T05:17:37;22.00;99.90
45104;DHT22;30865;51.288;4.572;2023-06-22T05:20:09;22.10;99.90
45104;DHT22;30865;51.288;4.572;2023-06-22T05:22:35;22.00;99.90
45104;DHT22;30865;51.288;4.572;2023-06-22T05:25:00;22.00;99.90
45104;DHT22;30865;51.288;4.572;2023-06-22T05:27:26;22.30;99.90
45104;DHT22;30865;51.288;4.572;2023-06-22T05:29:51;22.20;99.90
45104;DHT22;30865;51.288;4.572;2023-06-22T05:32:17;22.20;99.90
45104;DHT22;30865;51.288;4.572;2023-06-22T05:34:42;22.50;99.90
45104;DHT22;30865;51.288;4.572;2023-06-22T05:37:08;22.60;99.90
45104;DHT22;30865;51.288;4.572;2023-06-22T05:39:35;22.60;99.90
45104;DHT22;30865;51.288;4.572;2023-06-22T05:42:04;22.90;99.90
45104;DHT22;30865;51.288;4.572;2023-06-22T05:44:29;23.00;99.90
45104;DHT22;30865;51.288;4.572;2023-06-22T05:46:55;23.20;99.90
45104;DHT22;30865;51.288;4.572;2023-06-22T05:49:20;23.40;99.90
45104;DHT22;30865;51.288;4.572;2023-06-22T05:51:47;23.40;99.90
45104;DHT22;30865;51.288;4.572;2023-06-22T05:54:13;23.50;99.90
45104;DHT22;30865;51.288;4.572;2023-06-22T05:56:41;23.50;99.90
45104;DHT22;30865;51.288;4.572;2023-06-22T05:59:06;23.50;99.90
45104;DHT22;30865;51.288;4.572;2023-06-22T06:01:32;23.70;99.90
45104;DHT22;30865;51.288;4.572;2023-06-22T06:04:01;23.70;99.90
45104;DHT22;30865;51.288;4.572;2023-06-22T06:06:26;23.90;99.90
45104;DHT22;30865;51.288;4.572;2023-06-22T06:08:54;23.80;99.90
45104;DHT22;30865;51.288;4.572;2023-06-22T06:11:20;23.70;99.90
45104;DHT22;30865;51.288;4.572;2023-06-22T06:13:46;24.10;99.90
45104;DHT22;30865;51.288;4.572;2023-06-22T06:16:12;24.20;99.90
45104;DHT22;30865;51.288;4.572;2023-06-22T06:18:40;24.50;99.90
45104;DHT22;30865;51.288;4.572;2023-06-22T06:21:06;24.40;99.90
45104;DHT22;30865;51.288;4.572;2023-06-22T06:23:31;24.10;99.90
45104;DHT22;30865;51.288;4.572;2023-06-22T06:25:57;24.10;99.90
45104;DHT22;30865;51.288;4.572;2023-06-22T06:28:25;24.40;99.90
45104;DHT22;30865;51.288;4.572;2023-06-22T06:30:50;24.30;99.90
45104;DHT22;30865;51.288;4.572;2023-06-22T06:33:17;24.70;99.90
45104;DHT22;30865;51.288;4.572;2023-06-22T06:35:42;24.80;99.90
45104;DHT22;30865;51.288;4.572;2023-06-22T06:38:08;24.80;99.90
45104;DHT22;30865;51.288;4.572;2023-06-22T06:40:33;25.20;99.90
45104;DHT22;30865;51.288;4.572;2023-06-22T06:42:59;25.30;99.90
45104;DHT22;30865;51.288;4.572;2023-06-22T06:45:25;25.40;99.90
45104;DHT22;30865;51.288;4.572;2023-06-22T06:47:52;25.70;99.90
45104;DHT22;30865;51.288;4.572;2023-06-22T06:50:18;25.80;99.90
45104;DHT22;30865;51.288;4.572;2023-06-22T06:52:44;25.50;99.90
45104;DHT22;30865;51.288;4.572;2023-06-22T06:55:10;25.70;99.90
45104;DHT22;30865;51.288;4.572;2023-06-22T06:57:40;25.60;99.90
45104;DHT22;30865;51.288;4.572;2023-06-22T07:00:16;25.80;99.90
45104;DHT22;30865;51.288;4.572;2023-06-22T07:02:43;25.90;99.90
45104;DHT22;30865;51.288;4.572;2023-06-22T07:05:10;26.00;99.90
45104;DHT22;30865;51.288;4.572;2023-06-22T07:07:36;26.10;99.90
45104;DHT22;30865;51.288;4.572;2023-06-22T07:10:02;26.20;99.90
45104;DHT22;30865;51.288;4.572;2023-06-22T07:12:28;26.50;99.90
45104;DHT22;30865;51.288;4.572;2023-06-22T07:15:01;26.70;99.90
45104;DHT22;30865;51.288;4.572;2023-06-22T07:17:26;26.20;99.90
45104;DHT22;30865;51.288;4.572;2023-06-22T07:19:52;26.40;99.90
45104;DHT22;30865;51.288;4.572;2023-06-22T07:22:20;26.60;99.90
45104;DHT22;30865;51.288;4.572;2023-06-22T07:24:46;26.80;99.90
45104;DHT22;30865;51.288;4.572;2023-06-22T07:27:11;26.30;99.90
45104;DHT22;30865;51.288;4.572;2023-06-22T07:29:38;26.60;99.90
45104;DHT22;30865;51.288;4.572;2023-06-22T07:32:06;26.70;99.90
45104;DHT22;30865;51.288;4.572;2023-06-22T07:34:31;26.90;99.90
45104;DHT22;30865;51.288;4.572;2023-06-22T07:37:06;26.90;99.90
45104;DHT22;30865;51.288;4.572;2023-06-22T07:39:33;27.30;99.90
45104;DHT22;30865;51.288;4.572;2023-06-22T07:41:58;27.70;99.90
45104;DHT22;30865;51.288;4.572;2023-06-22T07:44:24;28.00;99.90
45104;DHT22;30865;51.288;4.572;2023-06-22T07:46:49;28.00;99.90
45104;DHT22;30865;51.288;4.572;2023-06-22T07:49:18;27.90;99.90
45104;DHT22;30865;51.288;4.572;2023-06-22T07:51:44;28.40;99.90
45104;DHT22;30865;51.288;4.572;2023-06-22T07:54:09;28.40;99.20
45104;DHT22;30865;51.288;4.572;2023-06-22T07:56:36;28.30;99.50
45104;DHT22;30865;51.288;4.572;2023-06-22T07:59:02;28.30;98.20
45104;DHT22;30865;51.288;4.572;2023-06-22T08:01:29;28.40;98.80
45104;DHT22;30865;51.288;4.572;2023-06-22T08:03:54;28.50;97.60
45104;DHT22;30865;51.288;4.572;2023-06-22T08:06:20;28.90;96.30
45104;DHT22;30865;51.288;4.572;2023-06-22T08:08:45;29.00;93.40
45104;DHT22;30865;51.288;4.572;2023-06-22T08:11:13;29.20;92.40
45104;DHT22;30865;51.288;4.572;2023-06-22T08:13:39;29.40;91.40
45104;DHT22;30865;51.288;4.572;2023-06-22T08:16:04;29.30;91.10
45104;DHT22;30865;51.288;4.572;2023-06-22T08:18:30;29.50;90.60
45104;DHT22;30865;51.288;4.572;2023-06-22T08:20:55;29.50;90.30
45104;DHT22;30865;51.288;4.572;2023-06-22T08:23:27;29.80;89.30
45104;DHT22;30865;51.288;4.572;2023-06-22T08:25:54;29.70;88.00
45104;DHT22;30865;51.288;4.572;2023-06-22T08:28:19;29.60;87.70
45104;DHT22;30865;51.288;4.572;2023-06-22T08:30:45;29.60;87.50
45104;DHT22;30865;51.288;4.572;2023-06-22T08:33:11;29.90;85.10
45104;DHT22;30865;51.288;4.572;2023-06-22T08:35:36;29.70;85.30
45104;DHT22;30865;51.288;4.572;2023-06-22T08:38:02;29.70;84.70
45104;DHT22;30865;51.288;4.572;2023-06-22T08:40:27;29.70;83.50
45104;DHT22;30865;51.288;4.572;2023-06-22T08:42:54;30.40;80.50
45104;DHT22;30865;51.288;4.572;2023-06-22T08:45:20;30.60;81.30
45104;DHT22;30865;51.288;4.572;2023-06-22T08:47:46;30.60;77.90
45104;DHT22;30865;51.288;4.572;2023-06-22T08:50:12;30.60;78.50
45104;DHT22;30865;51.288;4.572;2023-06-22T08:52:39;30.80;78.60
45104;DHT22;30865;51.288;4.572;2023-06-22T08:55:07;30.80;79.60
45104;DHT22;30865;51.288;4.572;2023-06-22T08:57:33;30.50;83.30
45104;DHT22;30865;51.288;4.572;2023-06-22T08:59:59;29.90;82.80
45104;DHT22;30865;51.288;4.572;2023-06-22T09:02:25;30.30;81.80
45104;DHT22;30865;51.288;4.572;2023-06-22T09:04:51;30.50;79.50
45104;DHT22;30865;51.288;4.572;2023-06-22T09:07:23;30.70;77.90
45104;DHT22;30865;51.288;4.572;2023-06-22T09:09:50;31.00;76.50
45104;DHT22;30865;51.288;4.572;2023-06-22T09:12:16;30.60;75.50
45104;DHT22;30865;51.288;4.572;2023-06-22T09:14:42;30.90;75.20
45104;DHT22;30865;51.288;4.572;2023-06-22T09:17:07;30.80;74.60
45104;DHT22;30865;51.288;4.572;2023-06-22T09:19:33;31.10;74.10
45104;DHT22;30865;51.288;4.572;2023-06-22T09:21:59;30.80;72.00
45104;DHT22;30865;51.288;4.572;2023-06-22T09:24:25;31.20;71.70
45104;DHT22;30865;51.288;4.572;2023-06-22T09:26:50;30.80;71.70
45104;DHT22;30865;51.288;4.572;2023-06-22T09:29:16;31.30;72.00
45104;DHT22;30865;51.288;4.572;2023-06-22T09:31:42;31.60;71.20
45104;DHT22;30865;51.288;4.572;2023-06-22T09:34:08;31.70;70.40
45104;DHT22;30865;51.288;4.572;2023-06-22T09:36:33;31.80;69.70
45104;DHT22;30865;51.288;4.572;2023-06-22T09:38:59;31.90;69.00
45104;DHT22;30865;51.288;4.572;2023-06-22T09:41:26;31.70;70.20
45104;DHT22;30865;51.288;4.572;2023-06-22T09:43:52;31.80;69.50
45104;DHT22;30865;51.288;4.572;2023-06-22T09:46:18;31.80;70.00
45104;DHT22;30865;51.288;4.572;2023-06-22T09:48:44;32.00;68.70
45104;DHT22;30865;51.288;4.572;2023-06-22T09:51:10;31.80;68.80
45104;DHT22;30865;51.288;4.572;2023-06-22T09:53:35;31.80;69.30
45104;DHT22;30865;51.288;4.572;2023-06-22T09:56:01;31.70;67.90
45104;DHT22;30865;51.288;4.572;2023-06-22T09:58:27;31.80;68.60
45104;DHT22;30865;51.288;4.572;2023-06-22T10:00:52;30.60;69.90
45104;DHT22;30865;51.288;4.572;2023-06-22T10:03:20;31.90;69.00
45104;DHT22;30865;51.288;4.572;2023-06-22T10:05:45;32.70;65.70
45104;DHT22;30865;51.288;4.572;2023-06-22T10:08:11;32.40;65.00
45104;DHT22;30865;51.288;4.572;2023-06-22T10:10:36;33.00;64.30
45104;DHT22;30865;51.288;4.572;2023-06-22T10:13:09;32.80;63.70
45104;DHT22;30865;51.288;4.572;2023-06-22T10:15:38;32.80;63.10
45104;DHT22;30865;51.288;4.572;2023-06-22T10:18:04;32.90;63.20
45104;DHT22;30865;51.288;4.572;2023-06-22T10:20:30;33.00;62.60
45104;DHT22;30865;51.288;4.572;2023-06-22T10:22:55;32.20;63.10
45104;DHT22;30865;51.288;4.572;2023-06-22T10:25:21;32.30;63.20
45104;DHT22;30865;51.288;4.572;2023-06-22T10:27:47;32.40;63.30
45104;DHT22;30865;51.288;4.572;2023-06-22T10:30:13;32.70;64.00
45104;DHT22;30865;51.288;4.572;2023-06-22T10:32:39;32.70;63.50
45104;DHT22;30865;51.288;4.572;2023-06-22T10:35:05;33.10;62.20
45104;DHT22;30865;51.288;4.572;2023-06-22T10:37:31;32.30;63.20
45104;DHT22;30865;51.288;4.572;2023-06-22T10:39:58;32.80;62.50
45104;DHT22;30865;51.288;4.572;2023-06-22T10:42:23;33.20;60.60
45104;DHT22;30865;51.288;4.572;2023-06-22T10:44:49;33.30;59.90
45104;DHT22;30865;51.288;4.572;2023-06-22T10:47:14;33.10;61.00
45104;DHT22;30865;51.288;4.572;2023-06-22T10:49:40;33.00;59.10
45104;DHT22;30865;51.288;4.572;2023-06-22T10:52:07;33.10;59.40
45104;DHT22;30865;51.288;4.572;2023-06-22T10:54:34;33.20;59.10
45104;DHT22;30865;51.288;4.572;2023-06-22T10:57:00;33.10;59.10
45104;DHT22;30865;51.288;4.572;2023-06-22T10:59:25;33.00;58.50
45104;DHT22;30865;51.288;4.572;2023-06-22T11:01:51;33.10;58.80
45104;DHT22;30865;51.288;4.572;2023-06-22T11:04:17;33.00;58.80
45104;DHT22;30865;51.288;4.572;2023-06-22T11:06:43;33.20;59.10
45104;DHT22;30865;51.288;4.572;2023-06-22T11:09:09;33.20;59.20
45104;DHT22;30865;51.288;4.572;2023-06-22T11:11:34;33.40;59.20
45104;DHT22;30865;51.288;4.572;2023-06-22T11:14:00;33.40;59.10
45104;DHT22;30865;51.288;4.572;2023-06-22T11:16:26;33.10;59.20
45104;DHT22;30865;51.288;4.572;2023-06-22T11:18:51;33.40;58.70
45104;DHT22;30865;51.288;4.572;2023-06-22T11:21:17;33.20;59.50
45104;DHT22;30865;51.288;4.572;2023-06-22T11:23:42;33.20;59.30
45104;DHT22;30865;51.288;4.572;2023-06-22T11:26:08;33.00;59.10
45104;DHT22;30865;51.288;4.572;2023-06-22T11:28:33;33.00;59.70
45104;DHT22;30865;51.288;4.572;2023-06-22T11:30:59;33.20;60.60
45104;DHT22;30865;51.288;4.572;2023-06-22T11:33:24;33.20;60.30
45104;DHT22;30865;51.288;4.572;2023-06-22T11:35:53;33.40;59.40
45104;DHT22;30865;51.288;4.572;2023-06-22T11:38:18;33.40;59.80
45104;DHT22;30865;51.288;4.572;2023-06-22T11:40:44;33.30;59.20
45104;DHT22;30865;51.288;4.572;2023-06-22T11:43:09;33.30;58.90
45104;DHT22;30865;51.288;4.572;2023-06-22T11:45:35;33.30;58.80
45104;DHT22;30865;51.288;4.572;2023-06-22T11:48:00;33.60;58.30
45104;DHT22;30865;51.288;4.572;2023-06-22T11:50:26;33.70;56.80
45104;DHT22;30865;51.288;4.572;2023-06-22T11:52:51;33.50;56.80
45104;DHT22;30865;51.288;4.572;2023-06-22T11:55:18;33.90;56.70
45104;DHT22;30865;51.288;4.572;2023-06-22T11:57:56;33.50;57.50
45104;DHT22;30865;51.288;4.572;2023-06-22T12:00:28;33.70;57.40
45104;DHT22;30865;51.288;4.572;2023-06-22T12:02:55;33.60;58.80
45104;DHT22;30865;51.288;4.572;2023-06-22T12:05:21;33.70;57.70
45104;DHT22;30865;51.288;4.572;2023-06-22T12:07:47;33.60;58.20
45104;DHT22;30865;51.288;4.572;2023-06-22T12:10:13;33.60;57.10
45104;DHT22;30865;51.288;4.572;2023-06-22T12:12:39;33.30;57.20
45104;DHT22;30865;51.288;4.572;2023-06-22T12:15:05;33.50;57.30
45104;DHT22;30865;51.288;4.572;2023-06-22T12:17:31;33.50;57.60
45104;DHT22;30865;51.288;4.572;2023-06-22T12:19:56;33.50;57.00
45104;DHT22;30865;51.288;4.572;2023-06-22T12:22:22;33.70;56.60
45104;DHT22;30865;51.288;4.572;2023-06-22T12:24:47;33.30;56.40
45104;DHT22;30865;51.288;4.572;2023-06-22T12:27:13;33.10;56.60
45104;DHT22;30865;51.288;4.572;2023-06-22T12:29:41;33.20;56.30
45104;DHT22;30865;51.288;4.572;2023-06-22T12:32:07;33.40;55.30
45104;DHT22;30865;51.288;4.572;2023-06-22T12:34:33;33.60;54.50
45104;DHT22;30865;51.288;4.572;2023-06-22T12:36:58;33.60;55.20
45104;DHT22;30865;51.288;4.572;2023-06-22T12:39:24;33.50;55.20
45104;DHT22;30865;51.288;4.572;2023-06-22T12:41:49;33.10;56.10
45104;DHT22;30865;51.288;4.572;2023-06-22T12:44:15;32.90;56.10
45104;DHT22;30865;51.288;4.572;2023-06-22T12:46:40;32.70;56.40
45104;DHT22;30865;51.288;4.572;2023-06-22T12:49:06;32.70;57.40
45104;DHT22;30865;51.288;4.572;2023-06-22T12:51:31;32.50;59.50
45104;DHT22;30865;51.288;4.572;2023-06-22T12:53:57;32.60;60.70
45104;DHT22;30865;51.288;4.572;2023-06-22T12:56:22;32.50;60.40
45104;DHT22;30865;51.288;4.572;2023-06-22T12:58:48;32.30;61.80
45104;DHT22;30865;51.288;4.572;2023-06-22T13:01:14;32.20;62.10
45104;DHT22;30865;51.288;4.572;2023-06-22T13:03:40;32.40;62.50
45104;DHT22;30865;51.288;4.572;2023-06-22T13:06:05;32.40;61.30
45104;DHT22;30865;51.288;4.572;2023-06-22T13:08:31;32.40;61.00
45104;DHT22;30865;51.288;4.572;2023-06-22T13:10:56;32.40;61.30
45104;DHT22;30865;51.288;4.572;2023-06-22T13:13:24;32.50;61.60
45104;DHT22;30865;51.288;4.572;2023-06-22T13:15:55;32.50;62.00
45104;DHT22;30865;51.288;4.572;2023-06-22T13:18:20;32.50;61.50
45104;DHT22;30865;51.288;4.572;2023-06-22T13:20:46;32.10;62.40
45104;DHT22;30865;51.288;4.572;2023-06-22T13:23:12;32.50;61.90
45104;DHT22;30865;51.288;4.572;2023-06-22T13:25:37;32.60;61.20
45104;DHT22;30865;51.288;4.572;2023-06-22T13:28:15;32.90;60.70
45104;DHT22;30865;51.288;4.572;2023-06-22T13:30:41;33.40;59.30
45104;DHT22;30865;51.288;4.572;2023-06-22T13:33:08;33.00;59.50
45104;DHT22;30865;51.288;4.572;2023-06-22T13:35:34;33.30;58.60
45104;DHT22;30865;51.288;4.572;2023-06-22T13:38:00;33.30;58.60
45104;DHT22;30865;51.288;4.572;2023-06-22T13:40:26;33.10;58.30
45104;DHT22;30865;51.288;4.572;2023-06-22T13:42:51;33.60;57.50
45104;DHT22;30865;51.288;4.572;2023-06-22T13:45:17;33.40;57.20
45104;DHT22;30865;51.288;4.572;2023-06-22T13:47:44;33.70;56.90
45104;DHT22;30865;51.288;4.572;2023-06-22T13:50:09;33.50;56.90
45104;DHT22;30865;51.288;4.572;2023-06-22T13:52:35;33.60;56.90
45104;DHT22;30865;51.288;4.572;2023-06-22T13:55:02;33.80;57.30
45104;DHT22;30865;51.288;4.572;2023-06-22T13:57:27;33.60;57.80
45104;DHT22;30865;51.288;4.572;2023-06-22T13:59:53;33.40;58.20
45104;DHT22;30865;51.288;4.572;2023-06-22T14:02:18;33.60;57.60
45104;DHT22;30865;51.288;4.572;2023-06-22T14:04:44;33.50;58.00
45104;DHT22;30865;51.288;4.572;2023-06-22T14:07:09;33.40;57.60
45104;DHT22;30865;51.288;4.572;2023-06-22T14:09:35;33.90;56.80
45104;DHT22;30865;51.288;4.572;2023-06-22T14:12:05;34.70;55.20
45104;DHT22;30865;51.288;4.572;2023-06-22T14:14:32;34.90;53.80
45104;DHT22;30865;51.288;4.572;2023-06-22T14:16:58;35.00;53.80
45104;DHT22;30865;51.288;4.572;2023-06-22T14:19:24;35.10;53.40
45104;DHT22;30865;51.288;4.572;2023-06-22T14:21:49;35.20;51.50
45104;DHT22;30865;51.288;4.572;2023-06-22T14:24:15;35.20;51.20
45104;DHT22;30865;51.288;4.572;2023-06-22T14:26:40;35.10;51.50
45104;DHT22;30865;51.288;4.572;2023-06-22T14:29:06;34.60;52.20
45104;DHT22;30865;51.288;4.572;2023-06-22T14:31:31;34.60;52.00
45104;DHT22;30865;51.288;4.572;2023-06-22T14:33:58;34.30;52.30
45104;DHT22;30865;51.288;4.572;2023-06-22T14:36:23;34.40;51.00
45104;DHT22;30865;51.288;4.572;2023-06-22T14:38:49;34.10;49.60
45104;DHT22;30865;51.288;4.572;2023-06-22T14:41:14;34.70;49.90
45104;DHT22;30865;51.288;4.572;2023-06-22T14:43:49;35.40;48.70
45104;DHT22;30865;51.288;4.572;2023-06-22T14:46:15;36.40;47.00
45104;DHT22;30865;51.288;4.572;2023-06-22T14:48:41;37.00;44.20
45104;DHT22;30865;51.288;4.572;2023-06-22T14:51:08;36.10;40.30
45104;DHT22;30865;51.288;4.572;2023-06-22T14:53:34;35.80;40.50
45104;DHT22;30865;51.288;4.572;2023-06-22T14:56:00;36.00;40.20
45104;DHT22;30865;51.288;4.572;2023-06-22T14:58:30;35.90;39.60
45104;DHT22;30865;51.288;4.572;2023-06-22T15:01:04;36.20;38.60
45104;DHT22;30865;51.288;4.572;2023-06-22T15:03:30;36.80;38.40
45104;DHT22;30865;51.288;4.572;2023-06-22T15:05:58;36.40;38.40
45104;DHT22;30865;51.288;4.572;2023-06-22T15:08:24;36.20;37.00
45104;DHT22;30865;51.288;4.572;2023-06-22T15:10:50;35.50;36.90
45104;DHT22;30865;51.288;4.572;2023-06-22T15:13:16;35.00;36.60
45104;DHT22;30865;51.288;4.572;2023-06-22T15:15:43;34.80;36.50
45104;DHT22;30865;51.288;4.572;2023-06-22T15:18:08;34.30;37.00
45104;DHT22;30865;51.288;4.572;2023-06-22T15:20:34;34.80;36.40
45104;DHT22;30865;51.288;4.572;2023-06-22T15:22:59;34.70;37.30
45104;DHT22;30865;51.288;4.572;2023-06-22T15:25:25;35.00;36.10
45104;DHT22;30865;51.288;4.572;2023-06-22T15:27:50;35.50;35.10